createdAt,value
2023-02-14T00:00:49.553Z,103155.97
2023-02-14T00:03:16.359Z,103150.91
2023-02-14T00:05:43.512Z,103157.75
2023-02-14T00:08:09.943Z,103151.84
2023-02-14T00:10:36.364Z,103156.38
2023-02-14T00:13:03.220Z,103155.75
2023-02-14T00:15:29.626Z,103150.78
2023-02-14T00:17:59.597Z,103157.81
2023-02-14T00:20:27.702Z,103164.66
2023-02-14T00:22:54.129Z,103164.28
2023-02-14T00:25:20.759Z,103162.44
2023-02-14T00:27:47.550Z,103160.88
2023-02-14T00:30:14.752Z,103161.19
2023-02-14T00:32:42.398Z,103163.84
2023-02-14T00:35:10.735Z,103163.03
2023-02-14T00:37:40.620Z,103158.97
2023-02-14T00:40:07.599Z,103156.16
2023-02-14T00:42:34.212Z,103153.78
2023-02-14T00:45:00.775Z,103150.56
2023-02-14T00:47:27.258Z,103157.66
2023-02-14T00:49:53.790Z,103155.19
2023-02-14T00:52:20.204Z,103160.25
2023-02-14T00:54:46.680Z,103155.91
2023-02-14T00:57:14.238Z,103163.94
2023-02-14T00:59:40.687Z,103155.84
2023-02-14T01:02:07.224Z,103157.78
2023-02-14T01:04:34.096Z,103158.66
2023-02-14T01:07:00.559Z,103160.03
2023-02-14T01:09:27.096Z,103162.09
2023-02-14T01:11:53.685Z,103165.47
2023-02-14T01:14:20.120Z,103158.97
2023-02-14T01:16:46.765Z,103156.44
2023-02-14T01:19:13.371Z,103164.50
2023-02-14T01:21:43.230Z,103165.16
2023-02-14T01:24:11.780Z,103162.63
2023-02-14T01:26:38.283Z,103163.47
2023-02-14T01:29:05.519Z,103157.88
2023-02-14T01:31:34.268Z,103159.50
2023-02-14T01:34:01.311Z,103156.38
2023-02-14T01:36:35.398Z,103159.19
2023-02-14T01:39:04.772Z,103159.19
2023-02-14T01:41:33.450Z,103160.72
2023-02-14T01:44:27.550Z,103157.59
2023-02-14T01:46:55.594Z,103165.47
2023-02-14T01:49:26.076Z,103163.47
2023-02-14T01:52:10.229Z,103164.56
2023-02-14T01:54:41.546Z,103159.81
2023-02-14T01:57:12.304Z,103162.94
2023-02-14T01:59:46.618Z,103164.56
2023-02-14T02:02:13.216Z,103154.66
2023-02-14T02:04:44.092Z,103162.72
2023-02-14T02:07:17.591Z,103159.34
2023-02-14T02:09:48.729Z,103162.72
2023-02-14T02:12:15.628Z,103150.47
2023-02-14T02:14:43.894Z,103156.81
2023-02-14T02:17:29.151Z,103145.41
2023-02-14T02:20:33.380Z,103144.34
2023-02-14T02:23:33.742Z,103136.59
2023-02-14T02:26:37.888Z,103135.84
2023-02-14T02:29:43.670Z,103135.13
2023-02-14T02:32:39.578Z,103129.06
2023-02-14T02:35:24.427Z,103122.25
2023-02-14T02:38:03.971Z,103119.34
2023-02-14T02:40:53.188Z,103116.84
2023-02-14T02:43:39.117Z,103109.56
2023-02-14T02:46:44.354Z,103114.91
2023-02-14T02:49:45.685Z,103107.13
2023-02-14T02:52:50.272Z,103102.59
2023-02-14T02:55:25.573Z,103109.78
2023-02-14T02:57:55.037Z,103100.22
2023-02-14T03:00:23.774Z,103098.84
2023-02-14T03:03:14.232Z,103097.00
2023-02-14T03:05:41.252Z,103093.09
2023-02-14T03:08:07.738Z,103093.00
2023-02-14T03:10:39.085Z,103087.03
2023-02-14T03:13:20.136Z,103083.25
2023-02-14T03:16:05.692Z,103079.88
2023-02-14T03:18:58.585Z,103078.88
2023-02-14T03:21:40.590Z,103086.91
2023-02-14T03:24:34.561Z,103086.47
2023-02-14T03:27:12.529Z,103088.53
2023-02-14T03:29:55.603Z,103079.38
2023-02-14T03:32:49.833Z,103078.69
2023-02-14T03:35:41.263Z,103086.44
2023-02-14T03:38:23.515Z,103078.22
2023-02-14T03:41:04.652Z,103077.09
2023-02-14T03:43:35.595Z,103068.78
2023-02-14T03:46:11.351Z,103067.53
2023-02-14T03:48:40.427Z,103074.03
2023-02-14T03:51:09.264Z,103075.88
2023-02-14T03:53:40.064Z,103065.63
2023-02-14T03:56:26.689Z,103062.50
2023-02-14T03:58:58.373Z,103065.91
2023-02-14T04:01:35.699Z,103064.34
2023-02-14T04:04:05.443Z,103065.75
2023-02-14T04:06:31.830Z,103067.75
2023-02-14T04:08:58.303Z,103065.91
2023-02-14T04:11:24.880Z,103063.53
2023-02-14T04:13:51.547Z,103063.47
2023-02-14T04:16:18.214Z,103053.59
2023-02-14T04:19:03.729Z,103055.06
2023-02-14T04:21:30.152Z,103050.38
2023-02-14T04:23:56.603Z,103056.44
2023-02-14T04:26:23.016Z,103052.78
2023-02-14T04:28:49.454Z,103050.78
2023-02-14T04:31:16.103Z,103045.97
2023-02-14T04:33:42.697Z,103040.38
2023-02-14T04:36:09.203Z,103035.03
2023-02-14T04:38:36.007Z,103041.63
2023-02-14T04:41:03.000Z,103040.31
2023-02-14T04:43:29.540Z,103042.53
2023-02-14T04:45:55.964Z,103040.25
2023-02-14T04:48:22.539Z,103035.06
2023-02-14T04:50:53.581Z,103042.25
2023-02-14T04:53:20.904Z,103034.38
2023-02-14T04:55:50.953Z,103040.03
2023-02-14T04:58:18.185Z,103039.03
2023-02-14T05:00:44.893Z,103036.38
2023-02-14T05:03:11.429Z,103037.50
2023-02-14T05:05:37.949Z,103032.97
2023-02-14T05:08:04.468Z,103033.44
2023-02-14T05:10:30.839Z,103032.81
2023-02-14T05:12:57.281Z,103038.03
2023-02-14T05:15:23.757Z,103035.16
2023-02-14T05:17:50.169Z,103035.34
2023-02-14T05:20:16.838Z,103035.25
2023-02-14T05:22:43.340Z,103033.94
2023-02-14T05:25:09.858Z,103029.28
2023-02-14T05:27:36.258Z,103029.75
2023-02-14T05:30:02.729Z,103030.28
2023-02-14T05:32:29.241Z,103027.91
2023-02-14T05:34:55.616Z,103029.50
2023-02-14T05:37:22.039Z,103029.75
2023-02-14T05:39:48.620Z,103035.31
2023-02-14T05:42:15.063Z,103035.25
2023-02-14T05:44:41.442Z,103035.97
2023-02-14T05:47:07.938Z,103025.94
2023-02-14T05:49:35.118Z,103028.56
2023-02-14T05:52:01.751Z,103026.53
2023-02-14T05:54:28.143Z,103031.59
2023-02-14T05:56:54.594Z,103032.28
2023-02-14T05:59:21.151Z,103033.97
2023-02-14T06:01:47.832Z,103023.66
2023-02-14T06:04:14.554Z,103028.16
2023-02-14T06:06:41.105Z,103033.28
2023-02-14T06:09:07.691Z,103036.28
2023-02-14T06:11:34.189Z,103038.44
2023-02-14T06:14:00.607Z,103039.88
2023-02-14T06:16:27.016Z,103037.03
2023-02-14T06:18:53.637Z,103034.25
2023-02-14T06:21:20.098Z,103039.59
2023-02-14T06:23:46.814Z,103039.03
2023-02-14T06:26:13.379Z,103044.38
2023-02-14T06:28:39.901Z,103038.69
2023-02-14T06:31:06.375Z,103043.91
2023-02-14T06:33:32.907Z,103049.03
2023-02-14T06:35:59.398Z,103048.56
2023-02-14T06:38:25.879Z,103047.16
2023-02-14T06:40:52.421Z,103056.41
2023-02-14T06:43:18.841Z,103055.59
2023-02-14T06:45:46.769Z,103051.41
2023-02-14T06:48:13.375Z,103052.22
2023-02-14T06:50:40.031Z,103057.28
2023-02-14T06:53:06.522Z,103055.19
2023-02-14T06:55:33.042Z,103053.22
2023-02-14T06:57:59.506Z,103051.81
2023-02-14T07:00:25.989Z,103055.56
2023-02-14T07:02:52.717Z,103063.31
2023-02-14T07:05:19.356Z,103061.09
2023-02-14T07:07:46.659Z,103059.50
2023-02-14T07:10:13.692Z,103063.09
2023-02-14T07:12:40.889Z,103060.72
2023-02-14T07:15:11.996Z,103054.25
2023-02-14T07:17:39.561Z,103058.66
2023-02-14T07:20:07.828Z,103056.25
2023-02-14T07:22:35.224Z,103058.19
2023-02-14T07:25:02.189Z,103051.44
2023-02-14T07:27:28.593Z,103047.22
2023-02-14T07:29:55.124Z,103064.06
2023-02-14T07:32:23.378Z,103049.72
2023-02-14T07:34:50.605Z,103058.38
2023-02-14T07:37:17.705Z,103048.78
2023-02-14T07:39:45.002Z,103045.69
2023-02-14T07:42:11.971Z,103050.59
2023-02-14T07:44:42.970Z,103052.25
2023-02-14T07:47:10.590Z,103045.66
2023-02-14T07:49:37.056Z,103044.31
2023-02-14T07:52:04.644Z,103043.47
2023-02-14T07:54:31.159Z,103038.59
2023-02-14T07:56:57.635Z,103054.16
2023-02-14T07:59:25.933Z,103047.41
2023-02-14T08:01:53.187Z,103050.59
2023-02-14T08:04:19.867Z,103049.41
2023-02-14T08:06:46.805Z,103057.13
2023-02-14T08:09:24.463Z,103055.88
2023-02-14T08:12:14.472Z,103052.13
2023-02-14T08:14:41.941Z,103056.19
2023-02-14T08:17:10.001Z,103059.81
2023-02-14T08:19:37.223Z,103056.22
2023-02-14T08:22:04.762Z,103054.09
2023-02-14T08:24:31.572Z,103049.69
2023-02-14T08:26:58.334Z,103052.41
2023-02-14T08:29:25.025Z,103043.63
2023-02-14T08:31:52.837Z,103047.59
2023-02-14T08:34:19.432Z,103045.31
2023-02-14T08:36:47.419Z,103043.84
2023-02-14T08:39:13.951Z,103038.88
2023-02-14T08:41:40.987Z,103039.19
2023-02-14T08:44:07.351Z,103046.25
2023-02-14T08:46:33.853Z,103040.81
2023-02-14T08:49:00.387Z,103046.47
2023-02-14T08:51:29.984Z,103041.34
2023-02-14T08:53:56.482Z,103050.88
2023-02-14T08:56:23.627Z,103041.41
2023-02-14T08:58:54.467Z,103044.47
2023-02-14T09:01:21.025Z,103035.53
2023-02-14T09:03:47.736Z,103026.50
2023-02-14T09:06:17.199Z,103034.47
2023-02-14T09:08:45.087Z,103036.34
2023-02-14T09:11:18.721Z,103031.72
2023-02-14T09:13:46.419Z,103040.50
2023-02-14T09:16:17.399Z,103039.16
2023-02-14T09:18:45.487Z,103033.19
2023-02-14T09:21:15.216Z,103043.31
2023-02-14T09:23:41.976Z,103041.66
2023-02-14T09:26:10.748Z,103042.06
2023-02-14T09:28:37.709Z,103034.72
2023-02-14T09:31:17.730Z,103038.25
2023-02-14T09:34:04.657Z,103035.41
2023-02-14T09:36:31.148Z,103034.59
2023-02-14T09:38:57.537Z,103038.13
2023-02-14T09:41:48.892Z,103031.78
2023-02-14T09:44:34.284Z,103016.53
2023-02-14T09:47:39.754Z,103016.53
2023-02-14T09:50:24.045Z,103013.69
2023-02-14T09:52:55.712Z,103014.03
2023-02-14T09:55:26.364Z,103010.97
2023-02-14T09:58:05.839Z,103008.44
2023-02-14T10:00:38.154Z,103007.44
2023-02-14T10:03:33.925Z,103011.03
2023-02-14T10:06:04.349Z,103013.25
2023-02-14T10:08:42.315Z,103012.53
2023-02-14T10:11:13.192Z,103015.53
2023-02-14T10:13:50.520Z,103008.44
2023-02-14T10:16:26.987Z,103003.31
2023-02-14T10:19:17.320Z,103001.41
2023-02-14T10:21:57.151Z,102991.91
2023-02-14T10:24:35.859Z,102996.72
2023-02-14T10:27:12.257Z,102983.84
2023-02-14T10:29:40.280Z,102980.75
2023-02-14T10:32:14.000Z,102986.38
2023-02-14T10:34:48.062Z,102984.44
2023-02-14T10:37:52.028Z,102999.47
2023-02-14T10:40:43.784Z,102983.03
2023-02-14T10:43:25.300Z,102975.41
2023-02-14T10:46:06.799Z,102979.25
2023-02-14T10:48:57.271Z,102975.59
2023-02-14T10:51:35.199Z,102968.53
2023-02-14T10:54:21.571Z,102982.44
2023-02-14T10:57:11.610Z,102981.47
2023-02-14T10:59:58.787Z,102984.63
2023-02-14T11:02:47.093Z,102965.53
2023-02-14T11:05:35.863Z,102962.13
2023-02-14T11:08:12.015Z,102952.72
2023-02-14T11:10:38.496Z,102950.47
2023-02-14T11:13:27.094Z,102946.16
2023-02-14T11:15:54.118Z,102943.94
2023-02-14T11:18:24.656Z,102940.81
2023-02-14T11:21:06.100Z,102940.19
2023-02-14T11:23:44.989Z,102937.03
2023-02-14T11:26:29.950Z,102941.28
2023-02-14T11:28:59.071Z,102934.31
2023-02-14T11:31:32.161Z,102938.19
2023-02-14T11:34:02.363Z,102934.97
2023-02-14T11:36:31.383Z,102931.00
2023-02-14T11:39:22.000Z,102937.72
2023-02-14T11:41:55.382Z,102929.19
2023-02-14T11:44:24.636Z,102923.19
2023-02-14T11:46:53.984Z,102923.16
2023-02-14T11:49:32.795Z,102920.25
2023-02-14T11:52:11.735Z,102915.66
2023-02-14T11:54:41.055Z,102908.81
2023-02-14T11:57:20.385Z,102902.78
2023-02-14T11:59:50.836Z,102897.81
2023-02-14T12:02:26.588Z,102891.50
2023-02-14T12:04:57.443Z,102890.47
2023-02-14T12:07:29.299Z,102883.16
2023-02-14T12:10:18.426Z,102884.44
2023-02-14T12:12:54.608Z,102876.28
2023-02-14T12:15:26.297Z,102870.81
2023-02-14T12:18:22.231Z,102865.31
2023-02-14T12:21:12.711Z,102868.16
2023-02-14T12:23:51.360Z,102865.56
2023-02-14T12:26:28.527Z,102860.13
2023-02-14T12:29:20.907Z,102854.84
2023-02-14T12:31:49.344Z,102860.44
2023-02-14T12:34:17.971Z,102852.19
2023-02-14T12:37:05.118Z,102845.06
2023-02-14T12:39:46.902Z,102848.81
2023-02-14T12:42:35.204Z,102850.88
2023-02-14T12:45:27.398Z,102843.16
2023-02-14T12:48:08.938Z,102838.44
2023-02-14T12:50:43.307Z,102842.13
2023-02-14T12:53:35.141Z,102833.09
2023-02-14T12:56:11.911Z,102827.88
2023-02-14T12:59:08.786Z,102821.78
2023-02-14T13:02:12.543Z,102817.31
2023-02-14T13:04:44.976Z,102818.78
2023-02-14T13:07:22.920Z,102819.44
2023-02-14T13:10:14.102Z,102811.28
2023-02-14T13:13:03.723Z,102811.13
2023-02-14T13:15:40.045Z,102808.41
2023-02-14T13:18:24.407Z,102796.63
2023-02-14T13:20:55.695Z,102795.72
2023-02-14T13:23:25.857Z,102800.09
2023-02-14T13:26:03.656Z,102796.91
2023-02-14T13:28:31.682Z,102789.06
2023-02-14T13:31:00.465Z,102788.00
2023-02-14T13:33:37.839Z,102773.31
2023-02-14T13:36:08.696Z,102776.66
2023-02-14T13:38:44.048Z,102775.50
2023-02-14T13:41:11.472Z,102772.09
2023-02-14T13:44:02.669Z,102771.34
2023-02-14T13:46:32.035Z,102769.94
2023-02-14T13:49:27.906Z,102762.75
2023-02-14T13:52:01.050Z,102761.63
2023-02-14T13:54:43.876Z,102761.22
2023-02-14T13:57:31.653Z,102750.88
2023-02-14T14:00:17.037Z,102751.13
2023-02-14T14:02:46.371Z,102756.44
2023-02-14T14:05:32.418Z,102752.41
2023-02-14T14:08:20.612Z,102739.50
2023-02-14T14:10:56.076Z,102744.22
2023-02-14T14:13:40.804Z,102746.81
2023-02-14T14:16:26.582Z,102745.59
2023-02-14T14:18:59.952Z,102748.31
2023-02-14T14:21:28.413Z,102746.53
2023-02-14T14:24:27.795Z,102741.31
2023-02-14T14:26:56.972Z,102750.75
2023-02-14T14:29:35.912Z,102750.41
2023-02-14T14:32:18.183Z,102746.47
2023-02-14T14:35:02.828Z,102743.94
2023-02-14T14:37:35.690Z,102737.84
2023-02-14T14:40:06.177Z,102740.25
2023-02-14T14:42:37.142Z,102728.09
2023-02-14T14:45:19.039Z,102726.72
2023-02-14T14:47:47.577Z,102727.00
2023-02-14T14:50:19.632Z,102716.53
2023-02-14T14:52:49.721Z,102716.66
2023-02-14T14:55:21.146Z,102720.06
2023-02-14T14:57:53.384Z,102713.56
2023-02-14T15:00:33.343Z,102720.50
2023-02-14T15:03:10.090Z,102718.31
2023-02-14T15:05:40.447Z,102719.13
2023-02-14T15:08:33.207Z,102708.16
2023-02-14T15:11:09.050Z,102713.25
2023-02-14T15:13:49.573Z,102706.94
2023-02-14T15:16:23.347Z,102704.75
2023-02-14T15:18:54.141Z,102708.72
2023-02-14T15:21:20.873Z,102699.94
2023-02-14T15:23:47.739Z,102701.69
2023-02-14T15:26:22.173Z,102699.75
2023-02-14T15:29:03.723Z,102697.81
2023-02-14T15:31:38.508Z,102694.13
2023-02-14T15:34:06.185Z,102695.22
2023-02-14T15:36:34.833Z,102682.66
2023-02-14T15:39:06.118Z,102689.06
2023-02-14T15:41:32.641Z,102695.25
2023-02-14T15:43:59.452Z,102686.19
2023-02-14T15:46:37.721Z,102685.22
2023-02-14T15:49:15.414Z,102687.56
2023-02-14T15:51:43.284Z,102683.28
2023-02-14T15:54:22.803Z,102677.47
2023-02-14T15:56:52.947Z,102682.63
2023-02-14T15:59:23.612Z,102682.47
2023-02-14T16:01:54.809Z,102666.47
2023-02-14T16:04:33.533Z,102666.34
2023-02-14T16:07:15.667Z,102670.72
2023-02-14T16:09:42.468Z,102666.22
2023-02-14T16:12:25.278Z,102670.00
2023-02-14T16:15:20.041Z,102664.47
2023-02-14T16:17:47.657Z,102657.81
2023-02-14T16:20:41.489Z,102670.78
2023-02-14T16:23:20.072Z,102665.69
2023-02-14T16:25:47.100Z,102666.59
2023-02-14T16:28:13.656Z,102673.31
2023-02-14T16:30:41.713Z,102680.91
2023-02-14T16:33:21.704Z,102672.69
2023-02-14T16:35:49.476Z,102674.00
2023-02-14T16:38:19.302Z,102679.72
2023-02-14T16:40:52.701Z,102679.59
2023-02-14T16:43:20.574Z,102689.25
2023-02-14T16:45:48.006Z,102688.81
2023-02-14T16:48:17.940Z,102691.34
2023-02-14T16:50:46.516Z,102692.00
2023-02-14T16:53:25.814Z,102700.28
2023-02-14T16:55:53.735Z,102694.06
2023-02-14T16:58:23.194Z,102697.41
2023-02-14T17:00:49.658Z,102695.53
2023-02-14T17:03:16.602Z,102693.19
2023-02-14T17:05:43.471Z,102691.34
2023-02-14T17:08:13.220Z,102694.47
2023-02-14T17:10:41.979Z,102690.09
2023-02-14T17:13:10.392Z,102692.44
2023-02-14T17:15:38.666Z,102703.31
2023-02-14T17:18:11.177Z,102696.84
2023-02-14T17:20:38.536Z,102696.00
2023-02-14T17:23:05.000Z,102698.50
2023-02-14T17:25:31.624Z,102704.53
2023-02-14T17:27:58.124Z,102694.38
2023-02-14T17:30:24.669Z,102689.13
2023-02-14T17:32:51.532Z,102693.28
2023-02-14T17:35:18.494Z,102687.47
2023-02-14T17:37:45.342Z,102676.66
2023-02-14T17:40:12.910Z,102681.25
2023-02-14T17:42:39.325Z,102677.06
2023-02-14T17:45:07.428Z,102684.97
2023-02-14T17:47:34.847Z,102681.00
2023-02-14T17:50:03.434Z,102685.53
2023-02-14T17:52:30.114Z,102681.78
2023-02-14T17:54:56.682Z,102688.41
2023-02-14T17:57:23.294Z,102677.78
2023-02-14T17:59:51.039Z,102676.47
2023-02-14T18:02:17.736Z,102682.72
2023-02-14T18:04:44.415Z,102676.91
2023-02-14T18:07:10.923Z,102680.66
2023-02-14T18:09:37.527Z,102683.94
2023-02-14T18:12:04.349Z,102686.59
2023-02-14T18:14:31.402Z,102686.31
2023-02-14T18:16:58.555Z,102682.94
2023-02-14T18:19:25.166Z,102677.31
2023-02-14T18:21:51.731Z,102670.00
2023-02-14T18:24:18.212Z,102675.78
2023-02-14T18:26:45.179Z,102673.91
2023-02-14T18:29:12.750Z,102672.06
2023-02-14T18:31:41.823Z,102665.81
2023-02-14T18:34:09.109Z,102660.31
2023-02-14T18:36:38.143Z,102664.59
2023-02-14T18:39:06.185Z,102662.06
2023-02-14T18:41:33.010Z,102654.94
2023-02-14T18:44:00.593Z,102649.50
2023-02-14T18:46:30.135Z,102648.63
2023-02-14T18:48:57.045Z,102647.13
2023-02-14T18:51:26.504Z,102648.91
2023-02-14T18:53:55.528Z,102645.13
2023-02-14T18:56:25.647Z,102640.31
2023-02-14T18:58:56.360Z,102641.16
2023-02-14T19:01:29.236Z,102632.56
2023-02-14T19:03:56.896Z,102631.97
2023-02-14T19:06:24.074Z,102624.25
2023-02-14T19:08:51.080Z,102627.72
2023-02-14T19:11:23.510Z,102623.63
2023-02-14T19:13:55.461Z,102627.75
2023-02-14T19:16:24.595Z,102617.88
2023-02-14T19:18:53.380Z,102616.31
2023-02-14T19:21:23.502Z,102616.72
2023-02-14T19:23:51.968Z,102611.03
2023-02-14T19:26:26.994Z,102610.28
2023-02-14T19:28:58.631Z,102611.91
2023-02-14T19:31:26.106Z,102615.72
2023-02-14T19:33:53.065Z,102607.94
2023-02-14T19:36:21.447Z,102616.81
2023-02-14T19:38:51.354Z,102608.47
2023-02-14T19:41:18.406Z,102603.00
2023-02-14T19:43:46.238Z,102607.91
2023-02-14T19:46:13.925Z,102607.84
2023-02-14T19:48:41.078Z,102608.50
2023-02-14T19:51:07.943Z,102610.25
2023-02-14T19:53:35.214Z,102607.47
2023-02-14T19:56:02.840Z,102619.22
2023-02-14T19:58:29.283Z,102609.56
2023-02-14T20:00:59.517Z,102620.22
2023-02-14T20:03:26.700Z,102618.22
2023-02-14T20:05:53.176Z,102619.78
2023-02-14T20:08:19.726Z,102618.66
2023-02-14T20:10:46.228Z,102615.78
2023-02-14T20:13:12.735Z,102616.44
2023-02-14T20:15:39.929Z,102607.13
2023-02-14T20:18:06.573Z,102606.50
2023-02-14T20:20:52.990Z,102610.59
2023-02-14T20:23:19.678Z,102591.19
2023-02-14T20:25:46.342Z,102596.09
2023-02-14T20:28:12.807Z,102588.59
2023-02-14T20:30:39.651Z,102581.25
2023-02-14T20:33:06.137Z,102596.28
2023-02-14T20:35:37.931Z,102594.59
2023-02-14T20:38:07.427Z,102603.50
2023-02-14T20:40:40.408Z,102596.06
2023-02-14T20:43:06.887Z,102591.13
2023-02-14T20:45:33.398Z,102597.22
2023-02-14T20:48:04.037Z,102595.56
2023-02-14T20:50:31.576Z,102593.41
2023-02-14T20:52:58.316Z,102574.59
2023-02-14T20:55:27.056Z,102579.78
2023-02-14T20:57:53.824Z,102584.31
2023-02-14T21:00:20.411Z,102589.03
2023-02-14T21:02:49.249Z,102591.69
2023-02-14T21:05:18.413Z,102581.03
2023-02-14T21:07:44.933Z,102572.88
2023-02-14T21:10:11.537Z,102573.72
2023-02-14T21:12:38.607Z,102574.44
2023-02-14T21:15:06.829Z,102566.00
2023-02-14T21:17:33.938Z,102578.78
2023-02-14T21:20:00.386Z,102572.38
2023-02-14T21:22:26.802Z,102569.06
2023-02-14T21:24:53.294Z,102572.44
2023-02-14T21:27:19.737Z,102567.63
2023-02-14T21:29:50.194Z,102568.16
2023-02-14T21:32:17.138Z,102565.34
2023-02-14T21:34:43.666Z,102550.28
2023-02-14T21:37:11.107Z,102551.97
2023-02-14T21:39:38.001Z,102551.75
2023-02-14T21:42:07.455Z,102550.41
2023-02-14T21:44:55.108Z,102543.84
2023-02-14T21:47:21.632Z,102539.50
2023-02-14T21:50:07.096Z,102545.03
2023-02-14T21:52:34.174Z,102542.56
2023-02-14T21:55:00.615Z,102542.31
2023-02-14T21:57:29.492Z,102541.19
2023-02-14T21:59:55.861Z,102528.78
2023-02-14T22:02:22.346Z,102529.53
2023-02-14T22:04:48.780Z,102531.75
2023-02-14T22:07:15.621Z,102534.41
2023-02-14T22:09:42.330Z,102529.16
2023-02-14T22:12:08.788Z,102534.41
2023-02-14T22:14:35.243Z,102526.53
2023-02-14T22:17:02.884Z,102527.34
2023-02-14T22:19:29.365Z,102529.56
2023-02-14T22:21:55.804Z,102529.72
2023-02-14T22:24:22.404Z,102523.72
2023-02-14T22:26:48.805Z,102531.78
2023-02-14T22:29:15.672Z,102527.25
2023-02-14T22:31:43.696Z,102532.47
2023-02-14T22:34:13.946Z,102529.47
2023-02-14T22:36:40.926Z,102531.50
2023-02-14T22:39:07.615Z,102527.47
2023-02-14T22:41:37.652Z,102523.78
2023-02-14T22:44:04.608Z,102529.50
2023-02-14T22:46:31.055Z,102517.94
2023-02-14T22:48:57.954Z,102522.44
2023-02-14T22:51:28.641Z,102517.94
2023-02-14T22:54:00.717Z,102521.09
2023-02-14T22:56:36.878Z,102520.78
2023-02-14T22:59:07.443Z,102518.13
2023-02-14T23:01:35.449Z,102522.84
2023-02-14T23:04:03.430Z,102518.34
2023-02-14T23:06:31.849Z,102514.16
2023-02-14T23:08:58.859Z,102519.00
2023-02-14T23:11:28.230Z,102515.00
2023-02-14T23:14:14.527Z,102516.88
2023-02-14T23:17:00.301Z,102514.84
2023-02-14T23:19:48.802Z,102513.00
2023-02-14T23:22:16.542Z,102509.47
2023-02-14T23:24:43.033Z,102516.00
2023-02-14T23:27:09.836Z,102505.28
2023-02-14T23:29:37.582Z,102504.13
2023-02-14T23:32:07.834Z,102501.47
2023-02-14T23:34:37.020Z,102512.00
2023-02-14T23:37:03.862Z,102509.50
2023-02-14T23:39:35.760Z,102503.97
2023-02-14T23:42:03.483Z,102510.69
2023-02-14T23:44:30.623Z,102505.84
2023-02-14T23:46:59.716Z,102506.66
2023-02-14T23:49:26.852Z,102496.13
2023-02-14T23:51:54.946Z,102494.28
2023-02-14T23:54:23.040Z,102501.47
2023-02-14T23:56:50.516Z,102500.97
2023-02-14T23:59:17.185Z,102494.28
